Time;durP1;ratioP1;P1;durP2;ratioP2;P2;SDS_P1;SDS_P2;PMS_P1;PMS_P2;Temp;Humidity;BMP_temperature;BMP_pressure;BME280_temperature;BME280_humidity;BME280_pressure;Samples;Min_cycle;Max_cycle;Signal;HPM_P1;HPM_P2
2021/12/07 00:00:47;;;;;;;34.60;21.20;;;;;;;0.75;79.09;100502.31;5049292;28;20165;-65
2021/12/07 00:03:12;;;;;;;35.27;23.57;;;;;;;1.26;77.78;100490.03;5043814;28;20181;-65
2021/12/07 00:05:38;;;;;;;43.90;24.30;;;;;;;1.23;78.63;100509.56;5041184;28;20421;-65
2021/12/07 00:08:04;;;;;;;37.87;21.43;;;;;;;1.19;77.97;100487.97;5046198;28;20189;-66
2021/12/07 00:10:29;;;;;;;36.77;24.20;;;;;;;1.57;78.90;100487.88;5047951;28;20196;-65
2021/12/07 00:12:55;;;;;;;33.47;22.53;;;;;;;0.78;79.33;100499.88;5038072;28;20235;-66
2021/12/07 00:15:23;;;;;;;36.70;23.30;;;;;;;1.57;79.13;100496.47;5034411;28;20186;-65
2021/12/07 00:17:48;;;;;;;37.10;23.87;;;;;;;1.40;77.35;100489.75;5041333;28;20344;-65
2021/12/07 00:20:17;;;;;;;40.27;24.73;;;;;;;1.57;77.19;100481.06;5040870;28;20503;-65
2021/12/07 00:22:45;;;;;;;32.73;22.23;;;;;;;1.18;78.46;100484.56;5040496;28;20181;-66
2021/12/07 00:25:12;;;;;;;36.53;24.47;;;;;;;1.58;78.81;100461.38;5022509;28;20437;-65
2021/12/07 00:27:37;;;;;;;35.27;23.17;;;;;;;1.42;77.15;100458.19;5020943;28;20443;-65
2021/12/07 00:30:05;;;;;;;33.07;23.23;;;;;;;1.36;77.57;100455.34;5021007;28;20525;-65
2021/12/07 00:32:34;;;;;;;36.63;23.17;;;;;;;1.32;78.94;100451.75;5036925;28;20284;-67
2021/12/07 00:37:27;;;;;;;34.87;22.63;;;;;;;1.32;78.46;100456.03;5038941;28;20523;-66
2021/12/07 00:39:53;;;;;;;35.97;24.50;;;;;;;1.05;77.24;100445.44;5040267;28;20710;-66
2021/12/07 00:42:20;;;;;;;32.57;23.20;;;;;;;1.17;78.26;100440.84;5039897;28;20409;-66
2021/12/07 00:44:45;;;;;;;42.60;25.37;;;;;;;1.66;78.76;100444.56;5040479;28;20490;-67
2021/12/07 00:47:10;;;;;;;41.03;26.20;;;;;;;1.15;77.71;100445.91;5040741;28;20401;-65
2021/12/07 00:49:36;;;;;;;38.77;25.90;;;;;;;1.48;78.57;100437.88;5025557;28;20209;-65
2021/12/07 00:52:01;;;;;;;35.40;23.47;;;;;;;1.60;77.93;100447.78;5053393;28;20225;-66
2021/12/07 00:54:27;;;;;;;36.97;24.60;;;;;;;1.25;77.89;100441.19;5043925;28;20186;-67
2021/12/07 00:56:52;;;;;;;39.43;25.87;;;;;;;1.53;76.87;100448.34;5041612;28;20185;-66
2021/12/07 00:59:17;;;;;;;39.07;24.53;;;;;;;1.46;77.75;100448.88;5041869;28;20480;-67
2021/12/07 01:01:43;;;;;;;38.57;23.57;;;;;;;1.19;78.12;100444.34;5042943;28;20177;-64
2021/12/07 01:04:09;;;;;;;37.90;26.00;;;;;;;1.39;77.69;100442.63;5040033;28;20266;-65
2021/12/07 01:09:27;;;;;;;42.23;26.23;;;;;;;1.08;77.63;100437.88;5038146;28;20424;-64
2021/12/07 01:25:37;;;;;;;39.50;26.40;;;;;;;1.46;78.38;100439.50;5048391;28;20423;-66
2021/12/07 01:28:13;;;;;;;39.80;25.90;;;;;;;1.88;76.75;100432.59;5045715;28;20466;-65
2021/12/07 01:30:51;;;;;;;44.00;28.17;;;;;;;0.99;77.65;100440.94;5047764;28;20497;-64
2021/12/07 01:39:29;;;;;;;40.80;26.90;;;;;;;1.70;77.00;100425.91;5047026;28;20429;-65
2021/12/07 01:42:43;;;;;;;38.90;26.40;;;;;;;1.52;77.33;100432.03;5048622;28;20416;-65
2021/12/07 01:50:02;;;;;;;43.07;26.90;;;;;;;1.37;76.65;100422.81;5049209;28;20523;-65
2021/12/07 02:00:25;;;;;;;41.50;26.47;;;;;;;1.77;77.48;100416.75;5038444;28;20417;-66
2021/12/07 02:02:50;;;;;;;38.10;26.07;;;;;;;2.17;75.21;100418.31;5038225;28;20170;-65
2021/12/07 02:05:16;;;;;;;38.60;25.73;;;;;;;1.13;77.86;100433.81;5037731;28;20421;-65
2021/12/07 02:07:41;;;;;;;45.80;26.43;;;;;;;1.67;79.06;100426.66;5025467;28;20190;-65
2021/12/07 02:10:14;;;;;;;43.67;26.83;;;;;;;1.84;77.23;100421.31;5018393;28;20200;-65
2021/12/07 02:12:44;;;;;;;39.97;27.13;;;;;;;1.97;76.45;100413.25;5018963;28;20206;-65
2021/12/07 02:15:12;;;;;;;41.43;27.17;;;;;;;1.61;75.56;100407.53;5017805;28;20414;-65
2021/12/07 02:17:37;;;;;;;41.73;25.50;;;;;;;1.46;77.60;100410.34;5018107;28;20449;-64
2021/12/07 02:20:04;;;;;;;34.83;23.93;;;;;;;1.27;77.29;100409.63;5018145;28;20441;-65
2021/12/07 02:22:29;;;;;;;40.40;26.30;;;;;;;0.93;78.32;100423.56;5018243;28;20218;-65
2021/12/07 02:24:55;;;;;;;38.80;25.77;;;;;;;0.98;77.95;100416.06;5032979;28;20826;-67
2021/12/07 02:27:20;;;;;;;35.80;23.10;;;;;;;0.94;79.71;100424.47;5037830;28;20197;-65
2021/12/07 02:29:45;;;;;;;42.37;27.33;;;;;;;1.63;78.47;100421.34;5037909;28;20170;-65
2021/12/07 02:32:11;;;;;;;41.83;26.20;;;;;;;1.65;79.79;100420.59;5037310;28;20194;-65
2021/12/07 02:34:42;;;;;;;43.80;27.00;;;;;;;1.50;77.88;100414.81;5035261;28;20198;-65
2021/12/07 02:37:08;;;;;;;42.40;27.33;;;;;;;1.52;77.37;100433.75;5037788;28;20162;-65
2021/12/07 02:39:36;;;;;;;43.23;27.07;;;;;;;1.78;76.47;100426.22;5036836;28;20431;-65
2021/12/07 02:42:02;;;;;;;36.33;25.47;;;;;;;1.40;77.69;100441.81;5032454;28;20823;-65
2021/12/07 02:44:27;;;;;;;41.30;26.33;;;;;;;1.61;76.68;100436.69;5018227;28;20422;-65
2021/12/07 02:46:53;;;;;;;41.20;26.17;;;;;;;1.46;78.12;100433.47;5029369;28;20519;-66
2021/12/07 02:49:19;;;;;;;38.83;26.27;;;;;;;1.20;77.16;100434.97;5037645;28;20166;-64
2021/12/07 02:51:45;;;;;;;45.30;26.20;;;;;;;1.50;76.25;100435.34;5035220;28;20249;-66
2021/12/07 02:54:10;;;;;;;36.70;25.43;;;;;;;1.15;78.33;100435.66;5017496;28;20508;-66
2021/12/07 02:56:36;;;;;;;40.50;25.60;;;;;;;1.22;77.92;100430.75;5016950;28;20762;-65
2021/12/07 02:59:03;;;;;;;39.00;25.60;;;;;;;1.63;76.75;100429.03;5017633;28;20209;-65
2021/12/07 03:01:33;;;;;;;38.83;25.63;;;;;;;1.31;78.76;100437.19;5017561;28;20179;-65
2021/12/07 03:04:10;;;;;;;39.43;25.50;;;;;;;1.54;77.88;100433.81;5017922;28;20448;-66
2021/12/07 03:28:16;;;;;;;45.53;28.70;;;;;;;1.44;77.38;100441.13;5035357;28;20425;-65
2021/12/07 03:30:42;;;;;;;40.90;26.03;;;;;;;1.55;77.69;100441.56;5017304;28;20207;-65
2021/12/07 03:33:07;;;;;;;41.83;27.33;;;;;;;2.07;75.85;100436.75;5017464;28;20203;-65
2021/12/07 03:35:33;;;;;;;41.63;25.57;;;;;;;1.57;76.84;100445.09;5017314;28;20552;-65
2021/12/07 03:37:58;;;;;;;39.87;25.90;;;;;;;1.08;79.09;100433.59;5017243;28;20202;-66
2021/12/07 03:40:24;;;;;;;40.83;25.60;;;;;;;1.22;78.58;100441.91;5035302;28;20248;-65
2021/12/07 03:42:49;;;;;;;43.07;26.73;;;;;;;1.73;77.25;100440.56;5036952;28;20206;-64
2021/12/07 03:45:15;;;;;;;48.07;30.13;;;;;;;1.98;77.03;100437.28;5036084;28;20478;-65
2021/12/07 03:47:41;;;;;;;41.00;27.97;;;;;;;1.94;77.43;100444.00;5037225;28;20171;-65
2021/12/07 03:50:09;;;;;;;40.20;26.90;;;;;;;1.79;76.02;100451.09;5020330;28;20469;-65
2021/12/07 03:52:34;;;;;;;37.93;26.30;;;;;;;1.24;78.66;100447.13;5016876;28;20238;-65
2021/12/07 03:55:00;;;;;;;41.93;25.73;;;;;;;1.54;77.37;100454.34;5017277;28;20479;-66
2021/12/07 03:57:25;;;;;;;41.57;27.37;;;;;;;1.50;77.11;100450.78;5016993;28;20266;-65
2021/12/07 03:59:50;;;;;;;46.10;28.80;;;;;;;1.63;78.31;100450.47;5029925;28;20273;-65
2021/12/07 04:02:16;;;;;;;43.23;27.30;;;;;;;1.19;77.83;100454.59;5020586;28;20179;-65
2021/12/07 04:04:41;;;;;;;38.60;24.77;;;;;;;1.37;77.49;100443.34;5016482;28;20197;-66
2021/12/07 04:07:07;;;;;;;40.50;26.70;;;;;;;1.14;78.22;100449.28;5016997;28;20183;-65
2021/12/07 04:09:32;;;;;;;41.87;26.70;;;;;;;1.26;78.51;100448.94;5027019;28;20596;-65
2021/12/07 04:11:59;;;;;;;38.73;26.03;;;;;;;1.37;81.20;100451.06;5036475;28;20524;-65
2021/12/07 04:14:24;;;;;;;40.70;26.10;;;;;;;1.23;78.60;100453.06;5036778;28;20701;-65
2021/12/07 04:16:49;;;;;;;42.47;26.30;;;;;;;1.54;78.51;100454.34;5038829;28;20492;-64
2021/12/07 04:19:15;;;;;;;46.33;28.27;;;;;;;1.43;78.73;100449.63;5026821;28;20544;-65
2021/12/07 04:21:40;;;;;;;48.93;27.60;;;;;;;1.38;79.25;100453.72;5020289;28;20203;-64
2021/12/07 04:24:05;;;;;;;40.80;26.97;;;;;;;1.41;78.83;100471.81;5022743;28;20193;-65
2021/12/07 04:26:31;;;;;;;44.53;27.17;;;;;;;1.53;76.86;100466.34;5023698;28;20500;-66
2021/12/07 04:28:57;;;;;;;43.30;27.77;;;;;;;1.81;77.83;100459.75;5030622;28;20178;-65
2021/12/07 04:31:23;;;;;;;41.07;28.10;;;;;;;1.71;78.00;100466.22;5039463;28;20709;-65
2021/12/07 04:33:48;;;;;;;42.60;27.60;;;;;;;1.85;77.14;100459.94;5040047;28;20236;-65
2021/12/07 04:36:13;;;;;;;42.60;27.70;;;;;;;2.11;77.92;100451.50;5039375;28;20181;-66
2021/12/07 04:38:39;;;;;;;42.10;26.50;;;;;;;1.61;77.68;100458.91;5039416;28;20228;-65
2021/12/07 04:41:05;;;;;;;46.20;28.67;;;;;;;1.70;77.94;100453.28;5040318;28;20178;-65
2021/12/07 04:43:31;;;;;;;42.47;28.80;;;;;;;2.07;76.12;100457.34;5039568;28;20434;-65
2021/12/07 04:46:06;;;;;;;47.23;29.97;;;;;;;1.91;77.06;100456.75;5040105;28;20431;-65
2021/12/07 04:48:59;;;;;;;42.07;26.93;;;;;;;1.36;78.31;100450.19;5033244;28;20441;-65
2021/12/07 04:59:31;;;;;;;42.60;23.40;;;;;;;1.21;78.94;100462.41;5021577;28;20814;-66
2021/12/07 05:01:56;;;;;;;40.20;22.57;;;;;;;0.99;79.63;100464.03;5038678;28;20516;-65
2021/12/07 05:04:26;;;;;;;40.43;25.63;;;;;;;1.54;78.65;100465.50;5039465;28;20190;-65
2021/12/07 05:06:57;;;;;;;42.17;27.80;;;;;;;0.95;80.11;100465.59;5039271;28;20170;-65
2021/12/07 05:09:39;;;;;;;38.10;24.57;;;;;;;1.04;80.61;100466.78;5038413;28;20409;-65
2021/12/07 05:14:38;;;;;;;47.43;27.17;;;;;;;1.75;78.22;100468.09;5019402;28;20418;-66
2021/12/07 05:38:24;;;;;;;39.47;26.83;;;;;;;1.91;77.52;100451.59;5019364;28;20492;-65
2021/12/07 05:40:50;;;;;;;42.40;26.80;;;;;;;1.88;77.08;100448.00;5028872;28;20803;-64
2021/12/07 05:43:15;;;;;;;40.07;25.13;;;;;;;1.85;77.13;100459.03;5039707;28;20235;-64
2021/12/07 05:45:41;;;;;;;36.37;24.50;;;;;;;1.65;77.82;100458.22;5042851;28;20531;-65
2021/12/07 05:48:07;;;;;;;38.50;26.13;;;;;;;2.16;76.67;100465.41;5059284;28;20170;-65
2021/12/07 05:50:35;;;;;;;39.63;25.50;;;;;;;2.10;76.81;100458.34;5038817;28;20431;-66
2021/12/07 05:53:01;;;;;;;40.33;25.93;;;;;;;2.09;77.23;100461.72;5037540;28;20285;-65
2021/12/07 05:55:26;;;;;;;37.87;25.30;;;;;;;1.47;78.89;100463.50;5022192;28;20433;-64
2021/12/07 05:57:53;;;;;;;40.13;26.60;;;;;;;1.05;79.17;100468.56;5032352;28;20182;-64
2021/12/07 06:00:26;;;;;;;38.27;25.97;;;;;;;1.67;79.01;100467.75;5039025;28;20413;-64
2021/12/07 06:02:53;;;;;;;38.60;26.10;;;;;;;1.74;77.62;100473.16;5037574;28;20452;-63
2021/12/07 06:05:20;;;;;;;37.63;25.23;;;;;;;1.66;77.62;100476.31;5022220;28;20421;-64
2021/12/07 06:07:45;;;;;;;38.43;24.37;;;;;;;1.28;79.11;100478.13;5034411;28;20468;-65
2021/12/07 06:10:10;;;;;;;36.70;24.30;;;;;;;1.11;78.92;100489.34;5036226;28;20755;-67
2021/12/07 06:12:36;;;;;;;33.63;24.47;;;;;;;1.40;78.76;100480.34;5019277;28;20250;-64
2021/12/07 06:15:01;;;;;;;39.90;26.00;;;;;;;1.30;77.72;100491.00;5018516;28;20265;-64
2021/12/07 06:17:26;;;;;;;34.83;23.23;;;;;;;1.60;78.00;100486.31;5019488;28;20266;-64
2021/12/07 06:19:52;;;;;;;39.03;26.27;;;;;;;1.66;77.03;100499.44;5018948;28;20537;-66
2021/12/07 06:22:17;;;;;;;38.10;25.20;;;;;;;1.48;79.73;100503.78;5018443;28;20222;-66
2021/12/07 06:24:43;;;;;;;38.17;24.13;;;;;;;1.58;78.03;100505.91;5019567;28;20254;-64
2021/12/07 06:27:08;;;;;;;36.80;25.27;;;;;;;1.65;77.95;100499.34;5019149;28;20213;-65
2021/12/07 06:29:33;;;;;;;37.23;23.80;;;;;;;1.90;76.06;100503.81;5019085;28;20252;-64
2021/12/07 06:31:59;;;;;;;37.63;22.20;;;;;;;1.32;76.54;100520.22;5019049;28;20171;-64
2021/12/07 06:34:24;;;;;;;38.93;25.17;;;;;;;1.47;78.33;100520.00;5018716;28;20531;-64
2021/12/07 06:36:50;;;;;;;39.47;24.70;;;;;;;1.47;77.24;100513.16;5018913;28;20177;-65
2021/12/07 06:39:15;;;;;;;33.33;22.00;;;;;;;0.75;80.45;100513.44;5018688;28;20397;-64
2021/12/07 06:41:41;;;;;;;35.50;24.10;;;;;;;1.05;79.25;100512.19;5018476;28;20175;-64
2021/12/07 06:44:06;;;;;;;37.90;24.20;;;;;;;1.91;77.19;100515.88;5018638;28;20178;-65
2021/12/07 06:46:32;;;;;;;36.43;24.20;;;;;;;1.59;76.26;100509.38;5019120;28;20171;-65
2021/12/07 06:48:57;;;;;;;37.07;24.10;;;;;;;1.59;78.55;100514.53;5018525;28;20490;-65
2021/12/07 06:51:22;;;;;;;40.27;25.67;;;;;;;1.50;77.50;100515.88;5018353;28;20222;-65
2021/12/07 06:53:48;;;;;;;36.20;24.23;;;;;;;1.36;77.50;100521.25;5018869;28;20435;-65
2021/12/07 06:56:13;;;;;;;35.30;22.13;;;;;;;1.19;78.76;100523.94;5027745;28;20507;-65
2021/12/07 06:58:39;;;;;;;31.97;20.33;;;;;;;1.08;79.24;100530.28;5051191;28;20192;-65
2021/12/07 07:01:06;;;;;;;37.80;24.00;;;;;;;1.66;76.98;100527.69;5059125;28;20208;-64
2021/12/07 07:03:34;;;;;;;36.37;23.17;;;;;;;1.87;76.46;100524.25;5062336;28;20169;-65
2021/12/07 07:06:00;;;;;;;35.10;24.20;;;;;;;1.96;75.81;100532.34;5036877;28;20515;-65
2021/12/07 07:08:26;;;;;;;36.03;22.70;;;;;;;1.55;76.91;100548.59;5035043;28;20437;-66
2021/12/07 07:10:52;;;;;;;35.97;21.67;;;;;;;1.50;77.42;100545.81;5022161;28;20499;-65
2021/12/07 07:13:17;;;;;;;35.70;23.57;;;;;;;2.00;75.95;100541.97;5020733;28;20275;-65
2021/12/07 07:15:42;;;;;;;33.60;21.80;;;;;;;1.95;75.78;100538.31;5018505;28;20537;-65
2021/12/07 07:18:08;;;;;;;32.50;21.07;;;;;;;1.85;75.38;100543.88;5018406;28;20174;-65
2021/12/07 07:20:33;;;;;;;34.93;22.73;;;;;;;1.90;75.50;100547.53;5018111;28;20206;-65
2021/12/07 07:22:58;;;;;;;32.30;22.97;;;;;;;1.84;76.38;100547.25;5018181;28;20183;-65
2021/12/07 07:25:24;;;;;;;34.80;22.93;;;;;;;1.57;76.76;100552.09;5018289;28;20190;-65
2021/12/07 07:27:49;;;;;;;34.10;23.40;;;;;;;2.12;76.65;100545.84;5018279;28;20186;-65
2021/12/07 07:30:16;;;;;;;33.93;21.20;;;;;;;1.54;75.46;100557.97;5018692;28;20174;-66
2021/12/07 07:32:43;;;;;;;27.90;19.97;;;;;;;1.50;76.77;100550.97;5017963;28;20206;-66
2021/12/07 07:35:09;;;;;;;33.67;22.60;;;;;;;1.25;77.29;100565.31;5017390;28;20444;-65
2021/12/07 07:37:35;;;;;;;35.73;23.00;;;;;;;1.50;76.85;100562.13;5018462;28;20834;-65
2021/12/07 07:40:02;;;;;;;35.33;22.93;;;;;;;1.63;77.40;100560.97;5018181;28;20528;-66
2021/12/07 07:42:28;;;;;;;35.67;22.60;;;;;;;1.67;76.34;100555.13;5017892;28;20433;-66
2021/12/07 07:44:53;;;;;;;37.40;23.40;;;;;;;1.22;76.72;100569.41;5018473;28;20812;-65
2021/12/07 07:47:18;;;;;;;35.83;23.30;;;;;;;1.55;76.66;100564.88;5018063;28;20182;-65
2021/12/07 07:49:43;;;;;;;37.03;23.13;;;;;;;1.80;76.22;100563.34;5017977;28;20216;-65
2021/12/07 07:52:09;;;;;;;33.40;22.47;;;;;;;1.89;76.31;100556.03;5020995;28;20279;-65
2021/12/07 07:54:34;;;;;;;35.73;23.57;;;;;;;1.88;74.61;100550.84;5023040;28;20205;-66
2021/12/07 07:56:59;;;;;;;36.53;23.80;;;;;;;1.88;76.84;100568.84;5022546;28;20186;-65
2021/12/07 07:59:25;;;;;;;39.50;23.27;;;;;;;1.73;76.86;100561.34;5022459;28;20189;-65
2021/12/07 08:01:51;;;;;;;35.37;22.70;;;;;;;1.93;74.69;100563.06;5023419;28;20189;-65
2021/12/07 08:04:16;;;;;;;33.47;22.30;;;;;;;1.70;76.46;100568.94;5023207;28;20198;-65
2021/12/07 08:06:41;;;;;;;34.43;23.47;;;;;;;1.95;75.36;100564.03;5022570;28;20420;-65
2021/12/07 08:09:08;;;;;;;37.07;23.43;;;;;;;1.85;75.91;100567.91;5021382;28;20452;-66
2021/12/07 08:11:34;;;;;;;34.90;21.37;;;;;;;1.70;76.38;100568.94;5021639;28;20167;-65
2021/12/07 08:13:59;;;;;;;33.67;23.53;;;;;;;1.88;75.32;100569.72;5021176;28;20465;-64
2021/12/07 08:16:24;;;;;;;34.17;23.23;;;;;;;1.99;75.83;100573.63;5021337;28;20193;-66
2021/12/07 08:18:50;;;;;;;36.33;23.70;;;;;;;1.16;77.62;100588.91;5021552;28;20167;-65
2021/12/07 08:21:16;;;;;;;34.93;23.07;;;;;;;1.75;76.50;100580.31;5021321;28;20245;-65
2021/12/07 08:23:43;;;;;;;31.93;21.93;;;;;;;1.61;75.70;100580.59;5020991;28;20892;-65
2021/12/07 08:26:10;;;;;;;38.07;23.87;;;;;;;1.71;76.92;100583.56;5021098;28;20174;-66
2021/12/07 08:28:36;;;;;;;35.67;23.10;;;;;;;2.10;74.94;100574.06;5021116;28;20426;-65
2021/12/07 08:31:02;;;;;;;32.50;20.70;;;;;;;1.65;75.62;100584.13;5020796;28;20674;-66
2021/12/07 08:33:28;;;;;;;35.03;22.57;;;;;;;2.43;74.28;100581.38;5021101;28;20249;-65
2021/12/07 08:35:53;;;;;;;34.97;21.63;;;;;;;1.71;76.46;100586.13;5022983;28;20449;-67
2021/12/07 08:38:19;;;;;;;34.20;22.97;;;;;;;1.32;77.30;100597.28;5040351;28;20184;-65
2021/12/07 08:40:45;;;;;;;35.80;23.67;;;;;;;1.83;76.02;100586.66;5040865;28;20170;-67
2021/12/07 08:43:12;;;;;;;37.50;23.30;;;;;;;2.17;74.85;100598.34;5040371;28;20421;-65
2021/12/07 08:45:40;;;;;;;34.27;22.70;;;;;;;1.94;76.58;100587.09;5040385;28;20182;-66
2021/12/07 08:48:05;;;;;;;26.67;18.50;;;;;;;7.65;79.92;100575.13;5040966;28;20487;-58
2021/12/07 08:50:31;;;;;;;24.40;18.03;;;;;;;9.74;67.06;100560.88;5039814;28;20507;-59
2021/12/07 08:53:02;;;;;;;31.93;22.57;;;;;;;4.19;64.55;100586.88;5039939;28;20222;-71
2021/12/07 09:00:58;;;;;;;35.83;23.87;;;;;;;2.05;74.52;100602.97;5040244;28;20425;-65
2021/12/07 09:03:23;;;;;;;33.93;23.57;;;;;;;2.16;73.61;100601.72;5039951;28;20875;-66
2021/12/07 09:05:49;;;;;;;38.27;23.13;;;;;;;1.80;75.03;100604.47;5040177;28;20236;-66
2021/12/07 09:08:15;;;;;;;36.23;23.83;;;;;;;2.55;73.79;100611.88;5040276;28;20253;-66
2021/12/07 09:10:40;;;;;;;39.07;25.20;;;;;;;2.79;71.94;100611.09;5040039;28;20186;-68
2021/12/07 09:13:06;;;;;;;35.50;23.00;;;;;;;1.75;74.97;100624.00;5039763;28;20468;-70
2021/12/07 09:15:31;;;;;;;33.40;22.87;;;;;;;2.03;74.69;100620.91;5040276;28;20260;-69
2021/12/07 09:17:56;;;;;;;31.80;22.20;;;;;;;2.05;74.66;100626.13;5040061;28;20291;-68
2021/12/07 09:20:21;;;;;;;36.33;22.63;;;;;;;1.67;74.99;100639.06;5040019;28;20228;-68
2021/12/07 09:22:47;;;;;;;36.97;24.50;;;;;;;1.70;75.82;100641.75;5039883;28;20190;-69
2021/12/07 09:25:14;;;;;;;30.93;20.60;;;;;;;1.82;75.25;100638.84;5039693;28;20178;-67
2021/12/07 09:27:39;;;;;;;34.93;22.00;;;;;;;1.37;77.38;100638.56;5038324;28;20424;-66
2021/12/07 09:30:07;;;;;;;39.53;25.37;;;;;;;1.74;75.92;100637.66;5039092;28;20826;-65
2021/12/07 09:32:32;;;;;;;35.63;23.57;;;;;;;1.57;76.13;100634.31;5038668;28;20202;-66
2021/12/07 09:34:58;;;;;;;37.90;24.10;;;;;;;2.07;75.60;100627.03;5039181;28;20451;-66
2021/12/07 09:37:24;;;;;;;37.03;23.57;;;;;;;2.13;74.68;100640.16;5039367;28;20181;-67
2021/12/07 09:39:49;;;;;;;33.80;23.33;;;;;;;2.30;74.60;100625.44;5039476;28;20417;-67
2021/12/07 09:42:14;;;;;;;31.00;20.30;;;;;;;1.89;74.08;100635.72;5039168;28;20189;-67
2021/12/07 09:44:40;;;;;;;40.50;24.87;;;;;;;1.49;76.46;100628.88;5039445;28;20220;-68
2021/12/07 09:47:05;;;;;;;41.60;24.40;;;;;;;2.22;75.17;100626.81;5041708;28;20232;-69
2021/12/07 09:49:30;;;;;;;41.00;24.33;;;;;;;1.71;75.60;100628.09;5040312;28;20442;-68
2021/12/07 09:51:56;;;;;;;33.87;22.63;;;;;;;2.35;74.24;100629.97;5038585;28;20569;-68
2021/12/07 09:54:21;;;;;;;37.40;24.53;;;;;;;2.41;73.94;100628.44;5038941;28;20504;-69
2021/12/07 09:56:46;;;;;;;39.83;24.97;;;;;;;2.76;73.19;100621.25;5039190;28;20217;-67
2021/12/07 09:59:12;;;;;;;36.30;23.70;;;;;;;2.23;74.19;100628.56;5039216;28;20174;-68
2021/12/07 10:01:40;;;;;;;36.00;24.97;;;;;;;2.70;73.34;100625.34;5039090;28;20253;-68
2021/12/07 10:04:05;;;;;;;41.70;25.70;;;;;;;2.82;72.52;100618.94;5022032;28;20188;-68
2021/12/07 10:06:30;;;;;;;37.87;24.17;;;;;;;2.21;73.46;100628.50;5039082;28;20417;-68
2021/12/07 10:08:56;;;;;;;39.33;25.00;;;;;;;2.45;74.46;100623.50;5038655;28;20181;-66
2021/12/07 10:11:23;;;;;;;37.80;24.83;;;;;;;1.90;75.55;100622.06;5039005;28;20170;-66
2021/12/07 10:13:50;;;;;;;37.10;24.40;;;;;;;2.67;73.37;100619.22;5038125;28;20457;-68
2021/12/07 10:16:18;;;;;;;40.00;24.80;;;;;;;2.74;73.64;100622.91;5038714;28;20413;-66
2021/12/07 10:18:43;;;;;;;42.10;26.00;;;;;;;1.99;74.51;100619.91;5039048;28;20409;-68
2021/12/07 10:21:16;;;;;;;41.23;24.57;;;;;;;2.16;75.77;100617.16;5038515;28;20475;-68
2021/12/07 10:23:50;;;;;;;43.13;25.40;;;;;;;1.78;76.48;100616.41;5038350;28;20276;-67
2021/12/07 10:26:23;;;;;;;35.60;24.57;;;;;;;1.89;76.06;100615.16;5038269;28;20474;-65
2021/12/07 10:28:54;;;;;;;37.80;23.10;;;;;;;2.19;75.26;100597.59;5038498;28;20417;-65
2021/12/07 10:31:32;;;;;;;33.10;22.97;;;;;;;2.25;74.71;100593.50;5038296;28;20416;-67
2021/12/07 10:34:01;;;;;;;39.60;23.63;;;;;;;1.21;78.30;100581.38;5038359;28;20456;-67
2021/12/07 10:36:40;;;;;;;40.80;25.10;;;;;;;2.19;76.07;100581.25;5037588;28;20400;-66
2021/12/07 10:39:16;;;;;;;34.77;22.43;;;;;;;2.35;75.11;100573.38;5038457;28;20683;-67
2021/12/07 10:41:51;;;;;;;38.23;23.90;;;;;;;2.35;74.80;100578.53;5038385;28;20401;-66
2021/12/07 10:44:27;;;;;;;37.07;24.23;;;;;;;2.29;75.30;100575.69;5037984;28;20467;-65
2021/12/07 10:46:56;;;;;;;38.50;25.23;;;;;;;2.60;74.33;100578.59;5038185;28;20710;-66
2021/12/07 10:49:21;;;;;;;35.77;23.80;;;;;;;2.29;75.01;100593.69;5037420;28;20409;-67
2021/12/07 10:52:11;;;;;;;39.03;25.50;;;;;;;2.28;75.59;100591.94;5037961;28;20747;-67
2021/12/07 10:54:41;;;;;;;32.80;23.37;;;;;;;2.68;73.63;100603.81;5038165;28;20201;-67
2021/12/07 10:57:09;;;;;;;39.87;25.00;;;;;;;2.72;73.72;100599.69;5038119;28;20444;-67
2021/12/07 10:59:35;;;;;;;38.13;24.33;;;;;;;2.74;72.97;100594.59;5037872;28;20659;-67
2021/12/07 11:02:14;;;;;;;38.60;24.13;;;;;;;2.35;74.28;100596.53;5038298;28;20420;-70
2021/12/07 11:04:40;;;;;;;37.37;24.70;;;;;;;2.30;74.58;100602.28;5038038;28;20412;-69
2021/12/07 11:07:23;;;;;;;36.10;22.90;;;;;;;2.75;73.58;100589.50;5037889;28;20782;-66
2021/12/07 11:12:47;;;;;;;31.87;22.23;;;;;;;2.80;73.09;100592.25;5037947;28;20452;-68
2021/12/07 11:15:22;;;;;;;39.27;23.70;;;;;;;2.78;73.31;100588.75;5037796;28;20482;-69
2021/12/07 11:17:47;;;;;;;38.07;25.30;;;;;;;2.96;72.64;100593.72;5041183;28;20463;-68
2021/12/07 11:20:13;;;;;;;38.03;23.57;;;;;;;2.55;73.97;100591.28;5038088;28;20449;-66
2021/12/07 11:22:43;;;;;;;39.63;24.57;;;;;;;2.62;74.52;100582.97;5037756;28;20475;-68
2021/12/07 11:25:09;;;;;;;39.33;25.93;;;;;;;2.08;75.67;100585.97;5039217;28;20170;-67
2021/12/07 11:30:21;;;;;;;36.77;23.37;;;;;;;2.43;73.46;100601.97;5041813;28;20440;-74
2021/12/07 11:32:55;;;;;;;36.97;24.17;;;;;;;2.65;73.40;100587.38;5041567;28;20467;-69
2021/12/07 11:35:26;;;;;;;30.53;20.13;;;;;;;1.94;75.06;100589.66;5040797;28;20413;-66
2021/12/07 11:37:54;;;;;;;33.53;23.90;;;;;;;3.14;71.90;100572.91;5042093;28;20431;-65
2021/12/07 11:40:29;;;;;;;34.60;22.37;;;;;;;2.66;74.14;100577.13;5041827;28;20413;-68
2021/12/07 11:42:54;;;;;;;35.47;23.10;;;;;;;2.47;73.70;100572.97;5041565;28;20412;-67
2021/12/07 11:45:26;;;;;;;35.67;24.70;;;;;;;2.86;72.62;100572.75;5042049;28;20416;-68
2021/12/07 11:47:55;;;;;;;36.57;23.70;;;;;;;2.53;74.34;100582.66;5042348;28;20219;-67
2021/12/07 11:50:37;;;;;;;32.97;22.07;;;;;;;2.97;72.34;100582.59;5044771;28;20736;-66
2021/12/07 11:53:08;;;;;;;42.00;24.13;;;;;;;2.66;73.42;100579.72;5041424;28;20480;-66
2021/12/07 11:55:36;;;;;;;40.60;25.27;;;;;;;3.06;72.67;100579.47;5041353;28;20449;-65
2021/12/07 11:58:03;;;;;;;34.90;23.30;;;;;;;3.22;71.93;100581.81;5041313;28;20409;-67
2021/12/07 12:00:34;;;;;;;38.80;26.40;;;;;;;3.28;71.99;100586.31;5043742;28;20455;-67
2021/12/07 12:03:04;;;;;;;35.60;23.50;;;;;;;3.20;71.21;100596.34;5042651;28;20783;-66
2021/12/07 12:05:30;;;;;;;39.47;25.67;;;;;;;3.00;72.46;100588.75;5041754;28;20420;-68
2021/12/07 12:07:56;;;;;;;35.10;24.33;;;;;;;3.76;70.89;100591.47;5041377;28;20425;-67
2021/12/07 12:10:21;;;;;;;34.77;24.63;;;;;;;3.36;72.03;100600.34;5040595;28;20527;-68
2021/12/07 12:13:16;;;;;;;36.33;23.90;;;;;;;3.56;70.75;100580.47;5039262;28;20536;-66
2021/12/07 12:15:59;;;;;;;37.87;25.17;;;;;;;3.27;71.87;100559.66;5039684;28;20602;-68
2021/12/07 12:18:49;;;;;;;42.50;23.90;;;;;;;3.58;70.37;100570.19;5040786;28;20500;-68
2021/12/07 12:21:32;;;;;;;34.53;23.93;;;;;;;3.58;71.24;100583.09;5040483;28;20429;-71
2021/12/07 12:24:20;;;;;;;38.57;23.93;;;;;;;3.73;70.58;100593.06;5040530;28;20459;-69
2021/12/07 12:26:47;;;;;;;38.60;23.63;;;;;;;3.29;71.11;100590.63;5040887;28;20413;-68
2021/12/07 12:29:21;;;;;;;36.87;26.33;;;;;;;3.44;70.97;100596.34;5034454;28;20414;-68
2021/12/07 12:31:57;;;;;;;35.43;23.93;;;;;;;3.63;71.04;100590.16;5032864;28;20435;-67
2021/12/07 12:34:36;;;;;;;36.00;24.10;;;;;;;3.51;71.55;100594.88;5024874;28;20447;-67
2021/12/07 12:37:13;;;;;;;39.63;24.77;;;;;;;3.29;72.01;100604.41;5021970;28;20493;-68
2021/12/07 12:39:49;;;;;;;34.43;23.90;;;;;;;3.64;71.14;100611.66;5039886;28;20387;-68
2021/12/07 12:42:27;;;;;;;39.60;24.13;;;;;;;3.66;70.64;100605.72;5039940;28;20499;-67
2021/12/07 12:45:26;;;;;;;32.97;23.10;;;;;;;3.41;70.86;100608.25;5040769;28;20417;-68
2021/12/07 12:47:58;;;;;;;40.17;25.23;;;;;;;3.22;73.14;100597.28;5040083;28;20421;-67
2021/12/07 12:50:27;;;;;;;36.00;23.60;;;;;;;3.21;72.05;100600.69;5039711;28;20688;-68
2021/12/07 12:52:57;;;;;;;36.43;24.40;;;;;;;3.27;72.92;100600.88;5038535;28;20472;-66
2021/12/07 12:55:50;;;;;;;40.50;24.83;;;;;;;3.23;72.32;100596.44;5040426;28;20436;-67
2021/12/07 12:58:18;;;;;;;35.03;24.53;;;;;;;3.62;72.11;100577.22;5040281;28;20413;-68
2021/12/07 13:01:08;;;;;;;37.83;26.27;;;;;;;3.50;71.39;100577.66;5039205;28;20472;-69
2021/12/07 13:03:54;;;;;;;40.40;24.23;;;;;;;3.27;73.08;100584.56;5039415;28;20452;-67